createdAt,value
2023-02-05T00:01:01.357Z,2.00
2023-02-05T00:05:59.616Z,1.80
2023-02-05T00:10:58.104Z,1.80
2023-02-05T00:15:57.698Z,1.80
2023-02-05T00:20:55.933Z,1.90
2023-02-05T00:25:54.173Z,1.90
2023-02-05T00:30:52.507Z,1.90
2023-02-05T00:35:52.191Z,1.90
2023-02-05T00:40:50.448Z,2.00
2023-02-05T00:45:49.237Z,2.00
2023-02-05T00:50:49.682Z,1.70
2023-02-05T00:55:49.409Z,1.60
2023-02-05T01:00:47.974Z,1.50
2023-02-05T01:05:46.565Z,1.50
2023-02-05T01:10:46.042Z,1.50
2023-02-05T01:15:46.105Z,1.40
2023-02-05T01:20:44.843Z,1.40
2023-02-05T01:25:43.080Z,1.30
2023-02-05T01:30:41.544Z,1.30
2023-02-05T01:35:42.380Z,1.20
2023-02-05T01:40:40.768Z,1.00
2023-02-05T01:46:20.193Z,0.70
2023-02-05T01:51:20.853Z,0.50
2023-02-05T01:56:22.961Z,0.40
2023-02-05T02:01:21.648Z,0.40
2023-02-05T02:06:21.353Z,0.30
2023-02-05T02:11:23.174Z,0.20
2023-02-05T02:16:22.438Z,0.20
2023-02-05T02:22:00.031Z,0.20
2023-02-05T02:27:44.475Z,0.30
2023-02-05T02:32:47.912Z,0.30
2023-02-05T02:37:51.031Z,0.30
2023-02-05T02:42:58.242Z,0.30
2023-02-05T02:48:00.956Z,0.30
2023-02-05T02:53:04.934Z,0.30
2023-02-05T02:58:08.394Z,0.30
2023-02-05T03:03:11.796Z,0.30
2023-02-05T03:08:16.389Z,0.30
2023-02-05T03:13:16.235Z,0.30
2023-02-05T03:18:21.728Z,0.30
2023-02-05T03:23:20.052Z,0.20
2023-02-05T03:28:20.160Z,0.40
2023-02-05T03:33:32.019Z,0.20
2023-02-05T03:38:50.928Z,0.10
2023-02-05T03:44:00.264Z,0.10
2023-02-05T03:49:08.664Z,0.10
2023-02-05T03:54:14.456Z,0.10
2023-02-05T03:59:16.904Z,0.10
2023-02-05T04:04:15.972Z,0.10
2023-02-05T04:09:15.230Z,0.10
2023-02-05T04:14:15.207Z,0.10
2023-02-05T04:19:15.203Z,0.00
2023-02-05T04:24:14.235Z,-0.10
2023-02-05T04:29:14.107Z,-0.20
2023-02-05T04:34:17.046Z,-0.10
2023-02-05T04:39:15.686Z,-0.10
2023-02-05T04:44:15.448Z,0.00
2023-02-05T04:49:13.796Z,0.20
2023-02-05T04:54:12.055Z,0.20
2023-02-05T04:59:10.312Z,0.20
2023-02-05T05:04:10.311Z,0.20
2023-02-05T05:09:08.590Z,0.30
2023-02-05T05:14:06.936Z,0.30
2023-02-05T05:19:05.261Z,0.30
2023-02-05T05:24:05.129Z,0.40
2023-02-05T05:29:03.371Z,0.30
2023-02-05T05:34:04.424Z,0.40
2023-02-05T05:39:18.333Z,0.20
2023-02-05T05:44:16.650Z,0.20
2023-02-05T05:49:14.947Z,0.20
2023-02-05T05:54:14.567Z,0.20
2023-02-05T05:59:14.185Z,0.20
2023-02-05T06:04:12.468Z,0.30
2023-02-05T06:09:10.726Z,0.20
2023-02-05T06:14:10.317Z,0.20
2023-02-05T06:19:08.663Z,0.10
2023-02-05T06:24:07.493Z,0.00
2023-02-05T06:29:05.730Z,-0.10
2023-02-05T06:34:05.327Z,-0.20
2023-02-05T06:39:03.628Z,-0.20
2023-02-05T06:44:02.045Z,-0.20
2023-02-05T06:49:00.282Z,-0.10
2023-02-05T06:54:01.297Z,0.00
2023-02-05T06:58:59.652Z,-0.10
2023-02-05T07:03:57.908Z,0.00
2023-02-05T07:08:56.300Z,0.20
2023-02-05T07:13:55.891Z,0.20
2023-02-05T07:18:54.177Z,0.20
2023-02-05T07:23:52.393Z,0.30
2023-02-05T07:28:50.764Z,0.30
2023-02-05T07:33:50.950Z,0.30
2023-02-05T07:38:49.670Z,0.20
2023-02-05T07:43:51.521Z,0.20
2023-02-05T07:48:51.192Z,0.20
2023-02-05T07:53:49.736Z,0.10
2023-02-05T07:58:49.566Z,0.10
2023-02-05T08:03:47.961Z,0.20
2023-02-05T08:08:47.573Z,0.20
2023-02-05T08:13:46.853Z,0.30
2023-02-05T08:18:49.315Z,0.30
2023-02-05T08:23:49.564Z,0.30
2023-02-05T08:28:47.845Z,0.10
2023-02-05T08:33:46.877Z,0.10
2023-02-05T08:38:45.218Z,0.20
2023-02-05T08:43:46.615Z,0.20
2023-02-05T08:48:44.855Z,0.30
2023-02-05T08:53:43.472Z,0.50
2023-02-05T08:58:41.907Z,0.50
2023-02-05T09:03:41.807Z,0.50
2023-02-05T09:08:40.278Z,0.70
2023-02-05T09:13:39.057Z,0.80
2023-02-05T09:18:37.368Z,0.80
2023-02-05T09:23:37.206Z,0.90
2023-02-05T09:28:35.585Z,1.00
2023-02-05T09:33:33.902Z,1.10
2023-02-05T09:38:32.141Z,1.20
2023-02-05T09:43:44.796Z,1.30
2023-02-05T09:48:55.894Z,1.30
2023-02-05T09:53:58.728Z,1.40
2023-02-05T09:59:00.034Z,1.60
2023-02-05T10:04:03.260Z,1.50
2023-02-05T10:09:13.366Z,1.50
2023-02-05T10:14:24.170Z,1.70
2023-02-05T10:19:42.773Z,1.70
2023-02-05T10:24:55.363Z,2.00
2023-02-05T10:30:04.745Z,2.00
2023-02-05T10:35:13.920Z,2.00
2023-02-05T10:40:17.147Z,2.00
2023-02-05T10:45:21.055Z,2.00
2023-02-05T10:50:26.660Z,2.10
2023-02-05T10:55:24.944Z,2.40
2023-02-05T11:00:25.164Z,2.60
2023-02-05T11:05:27.604Z,2.80
2023-02-05T11:10:27.999Z,3.70
2023-02-05T11:15:29.770Z,4.20
2023-02-05T11:20:34.167Z,4.20
2023-02-05T11:25:32.542Z,4.00
2023-02-05T11:30:56.023Z,3.70
2023-02-05T11:35:57.044Z,3.60
2023-02-05T11:40:55.710Z,3.80
2023-02-05T11:45:57.945Z,3.90
2023-02-05T11:50:56.456Z,4.30
2023-02-05T11:55:57.623Z,4.90
2023-02-05T12:00:59.207Z,5.40
2023-02-05T12:06:06.150Z,5.40
2023-02-05T12:11:18.021Z,5.50
2023-02-05T12:16:27.803Z,5.60
2023-02-05T12:21:34.248Z,5.60
2023-02-05T12:26:35.221Z,5.50
2023-02-05T12:31:45.686Z,5.30
2023-02-05T12:36:55.362Z,5.60
2023-02-05T12:42:02.223Z,5.40
2023-02-05T12:47:13.741Z,5.10
2023-02-05T12:52:26.170Z,4.60
2023-02-05T12:57:27.784Z,4.20
2023-02-05T13:02:34.826Z,4.00
2023-02-05T13:07:37.332Z,4.30
2023-02-05T13:12:38.838Z,4.60
2023-02-05T13:17:42.422Z,4.30
2023-02-05T13:23:12.574Z,4.30
2023-02-05T13:28:42.628Z,4.20
2023-02-05T13:33:43.474Z,4.00
2023-02-05T13:38:58.350Z,3.80
2023-02-05T13:44:24.177Z,3.70
2023-02-05T13:49:59.258Z,3.80
2023-02-05T13:55:45.304Z,3.70
2023-02-05T14:00:45.735Z,3.60
2023-02-05T14:05:45.533Z,3.60
2023-02-05T14:10:46.592Z,3.70
2023-02-05T14:15:47.010Z,3.70
2023-02-05T14:20:46.666Z,3.70
2023-02-05T14:26:04.243Z,3.70
2023-02-05T14:31:03.767Z,3.90
2023-02-05T14:36:35.925Z,4.00
2023-02-05T14:41:50.818Z,4.00
2023-02-05T14:47:02.584Z,3.70
2023-02-05T14:52:04.818Z,3.80
2023-02-05T14:57:14.217Z,3.70
2023-02-05T15:02:50.611Z,3.40
2023-02-05T15:07:53.079Z,3.10
2023-02-05T15:13:03.286Z,2.90
2023-02-05T15:18:08.248Z,2.80
2023-02-05T15:23:19.569Z,2.90
2023-02-05T15:28:25.994Z,2.90
2023-02-05T15:33:34.080Z,3.10
2023-02-05T15:38:40.126Z,2.90
2023-02-05T15:43:38.622Z,2.80
2023-02-05T15:48:39.053Z,2.80
2023-02-05T15:53:42.592Z,2.70
2023-02-05T15:58:44.190Z,2.70
2023-02-05T16:03:42.382Z,2.70
2023-02-05T16:08:47.651Z,2.60
2023-02-05T16:13:46.088Z,2.60
2023-02-05T16:18:48.827Z,2.70
2023-02-05T16:23:57.237Z,2.70
2023-02-05T16:28:58.963Z,2.70
2023-02-05T16:34:02.264Z,2.60
2023-02-05T16:39:05.847Z,2.50
2023-02-05T16:44:07.687Z,2.20
2023-02-05T16:49:33.319Z,2.10
2023-02-05T16:54:38.834Z,2.00
2023-02-05T16:59:48.725Z,1.90
2023-02-05T17:04:52.750Z,2.00
2023-02-05T17:09:53.542Z,1.90
2023-02-05T17:14:55.168Z,1.90
2023-02-05T17:20:08.835Z,1.90
2023-02-05T17:25:09.458Z,1.80
2023-02-05T17:30:19.088Z,1.70
2023-02-05T17:35:18.258Z,1.60
2023-02-05T17:40:19.626Z,1.60
2023-02-05T17:45:20.908Z,1.50
2023-02-05T17:50:19.763Z,1.60
2023-02-05T17:55:21.427Z,1.60
2023-02-05T18:00:21.801Z,1.70
2023-02-05T18:05:20.566Z,1.70
2023-02-05T18:10:24.186Z,1.70
2023-02-05T18:15:22.563Z,1.60
2023-02-05T18:20:21.708Z,1.60
2023-02-05T18:25:21.397Z,1.60
2023-02-05T18:30:19.868Z,1.50
2023-02-05T18:35:18.410Z,1.50
2023-02-05T18:40:16.894Z,1.50
2023-02-05T18:45:16.435Z,1.40
2023-02-05T18:50:14.904Z,1.40
2023-02-05T18:55:13.660Z,1.40
2023-02-05T19:00:13.383Z,1.30
2023-02-05T19:05:13.011Z,1.30
2023-02-05T19:10:11.506Z,1.20
2023-02-05T19:15:10.742Z,1.20
2023-02-05T19:20:09.655Z,1.10
2023-02-05T19:25:10.005Z,1.10
2023-02-05T19:30:08.853Z,1.10
2023-02-05T19:35:07.550Z,1.10
2023-02-05T19:40:06.556Z,1.00
2023-02-05T19:45:07.085Z,1.00
2023-02-05T19:50:05.560Z,0.90
2023-02-05T19:55:03.779Z,0.90
2023-02-05T20:00:02.049Z,0.90
2023-02-05T20:05:11.692Z,0.80
2023-02-05T20:10:10.231Z,0.80
2023-02-05T20:15:09.918Z,0.70
2023-02-05T20:20:14.262Z,0.70
2023-02-05T20:25:19.684Z,0.70
2023-02-05T20:30:36.248Z,0.70
2023-02-05T20:35:36.493Z,0.60
2023-02-05T20:40:36.477Z,0.60
2023-02-05T20:45:34.921Z,0.60
2023-02-05T20:50:33.668Z,0.60
2023-02-05T20:55:32.170Z,0.60
2023-02-05T21:00:31.934Z,0.40
2023-02-05T21:05:30.196Z,0.40
2023-02-05T21:10:28.431Z,0.40
2023-02-05T21:15:26.876Z,0.40
2023-02-05T21:20:26.501Z,0.40
2023-02-05T21:25:24.806Z,0.40
2023-02-05T21:30:23.107Z,0.30
2023-02-05T21:35:21.628Z,0.40
2023-02-05T21:40:21.796Z,0.40
2023-02-05T21:45:20.246Z,0.30
2023-02-05T21:50:18.744Z,0.30
2023-02-05T21:55:17.126Z,0.20
2023-02-05T22:00:17.631Z,0.20
2023-02-05T22:05:15.982Z,0.20
2023-02-05T22:10:14.211Z,0.20
2023-02-05T22:15:13.611Z,0.20
2023-02-05T22:20:13.887Z,0.20
2023-02-05T22:25:12.256Z,0.10
2023-02-05T22:30:11.985Z,0.10
2023-02-05T22:35:10.324Z,0.10
2023-02-05T22:40:11.300Z,0.10
2023-02-05T22:45:10.090Z,0.00
2023-02-05T22:50:09.058Z,0.00
2023-02-05T22:55:09.331Z,0.00
2023-02-05T23:00:08.227Z,0.00
2023-02-05T23:05:07.004Z,0.00
2023-02-05T23:10:06.469Z,-0.10
2023-02-05T23:15:06.793Z,-0.10
2023-02-05T23:20:06.369Z,-0.10
2023-02-05T23:25:05.637Z,-0.10
2023-02-05T23:30:06.494Z,-0.10
2023-02-05T23:35:05.093Z,-0.30
2023-02-05T23:40:03.380Z,-0.30
2023-02-05T23:45:01.616Z,-0.30
2023-02-05T23:50:02.656Z,-0.20
2023-02-05T23:55:00.909Z,-0.10
2023-02-05T23:59:59.212Z,-0.10
